sensor_id;sensor_type;location;lat;lon;timestamp;temperature;humidity
25468;DHT22;13384;24.794;110.498;2023-03-14T00:01:38;11.40;99.90
25468;DHT22;13384;24.794;110.498;2023-03-14T00:04:12;11.50;99.90
25468;DHT22;13384;24.794;110.498;2023-03-14T00:06:45;11.70;99.90
25468;DHT22;13384;24.794;110.498;2023-03-14T00:09:17;11.70;99.90
25468;DHT22;13384;24.794;110.498;2023-03-14T00:11:48;11.70;99.90
25468;DHT22;13384;24.794;110.498;2023-03-14T00:14:19;11.80;99.90
25468;DHT22;13384;24.794;110.498;2023-03-14T00:16:50;11.90;99.90
25468;DHT22;13384;24.794;110.498;2023-03-14T00:19:22;11.90;99.90
25468;DHT22;13384;24.794;110.498;2023-03-14T00:21:53;12.00;99.90
25468;DHT22;13384;24.794;110.498;2023-03-14T00:24:26;12.10;99.90
25468;DHT22;13384;24.794;110.498;2023-03-14T00:26:58;12.30;99.90
25468;DHT22;13384;24.794;110.498;2023-03-14T00:29:29;12.40;99.90
25468;DHT22;13384;24.794;110.498;2023-03-14T00:32:00;12.50;99.90
25468;DHT22;13384;24.794;110.498;2023-03-14T00:34:33;12.60;99.90
25468;DHT22;13384;24.794;110.498;2023-03-14T00:37:04;12.70;99.90
25468;DHT22;13384;24.794;110.498;2023-03-14T00:39:35;12.70;99.90
25468;DHT22;13384;24.794;110.498;2023-03-14T00:42:06;12.50;99.90
25468;DHT22;13384;24.794;110.498;2023-03-14T00:44:38;12.40;99.90
25468;DHT22;13384;24.794;110.498;2023-03-14T00:47:10;12.50;99.90
25468;DHT22;13384;24.794;110.498;2023-03-14T00:49:41;12.60;99.90
25468;DHT22;13384;24.794;110.498;2023-03-14T00:52:14;12.70;99.90
25468;DHT22;13384;24.794;110.498;2023-03-14T00:54:45;12.80;99.90
25468;DHT22;13384;24.794;110.498;2023-03-14T00:57:16;12.80;99.90
25468;DHT22;13384;24.794;110.498;2023-03-14T00:59:47;12.90;99.90
25468;DHT22;13384;24.794;110.498;2023-03-14T01:02:18;13.00;99.90
25468;DHT22;13384;24.794;110.498;2023-03-14T01:04:50;13.00;99.90
25468;DHT22;13384;24.794;110.498;2023-03-14T01:07:23;13.20;99.90
25468;DHT22;13384;24.794;110.498;2023-03-14T01:10:08;13.40;99.90
25468;DHT22;13384;24.794;110.498;2023-03-14T01:12:40;13.50;99.90
25468;DHT22;13384;24.794;110.498;2023-03-14T01:15:15;13.60;99.90
25468;DHT22;13384;24.794;110.498;2023-03-14T01:17:47;13.60;99.90
25468;DHT22;13384;24.794;110.498;2023-03-14T01:20:21;13.70;99.90
25468;DHT22;13384;24.794;110.498;2023-03-14T01:22:54;13.80;99.90
25468;DHT22;13384;24.794;110.498;2023-03-14T01:25:25;13.90;99.90
25468;DHT22;13384;24.794;110.498;2023-03-14T01:27:56;14.00;99.90
25468;DHT22;13384;24.794;110.498;2023-03-14T01:30:28;14.00;99.90
25468;DHT22;13384;24.794;110.498;2023-03-14T01:33:03;14.00;99.90
25468;DHT22;13384;24.794;110.498;2023-03-14T01:35:35;14.10;99.90
25468;DHT22;13384;24.794;110.498;2023-03-14T01:38:06;14.30;99.90
25468;DHT22;13384;24.794;110.498;2023-03-14T01:40:45;14.40;99.90
25468;DHT22;13384;24.794;110.498;2023-03-14T01:43:18;14.50;99.90
25468;DHT22;13384;24.794;110.498;2023-03-14T01:48:45;14.60;99.90
25468;DHT22;13384;24.794;110.498;2023-03-14T01:51:40;14.50;99.90
25468;DHT22;13384;24.794;110.498;2023-03-14T01:54:28;14.60;99.90
25468;DHT22;13384;24.794;110.498;2023-03-14T01:57:14;14.70;99.90
25468;DHT22;13384;24.794;110.498;2023-03-14T02:00:00;14.80;99.90
25468;DHT22;13384;24.794;110.498;2023-03-14T02:02:46;14.80;99.90
25468;DHT22;13384;24.794;110.498;2023-03-14T02:05:33;14.90;99.90
25468;DHT22;13384;24.794;110.498;2023-03-14T02:08:19;15.10;99.90
25468;DHT22;13384;24.794;110.498;2023-03-14T02:10:58;15.20;99.90
25468;DHT22;13384;24.794;110.498;2023-03-14T02:13:50;15.20;99.90
25468;DHT22;13384;24.794;110.498;2023-03-14T02:16:39;15.20;99.90
25468;DHT22;13384;24.794;110.498;2023-03-14T02:19:15;15.40;99.90
25468;DHT22;13384;24.794;110.498;2023-03-14T02:22:28;15.40;99.60
25468;DHT22;13384;24.794;110.498;2023-03-14T02:27:56;15.60;99.50
25468;DHT22;13384;24.794;110.498;2023-03-14T02:30:30;15.70;99.40
25468;DHT22;13384;24.794;110.498;2023-03-14T02:33:16;15.70;98.80
25468;DHT22;13384;24.794;110.498;2023-03-14T02:35:50;15.90;98.70
25468;DHT22;13384;24.794;110.498;2023-03-14T02:41:08;16.00;98.40
25468;DHT22;13384;24.794;110.498;2023-03-14T02:43:45;16.10;98.30
25468;DHT22;13384;24.794;110.498;2023-03-14T02:46:21;16.40;97.60
25468;DHT22;13384;24.794;110.498;2023-03-14T02:49:04;16.50;97.20
25468;DHT22;13384;24.794;110.498;2023-03-14T02:51:40;16.70;95.90
25468;DHT22;13384;24.794;110.498;2023-03-14T02:54:14;16.60;96.40
25468;DHT22;13384;24.794;110.498;2023-03-14T02:56:50;16.70;96.10
25468;DHT22;13384;24.794;110.498;2023-03-14T02:59:23;16.90;95.80
25468;DHT22;13384;24.794;110.498;2023-03-14T03:02:18;16.90;96.60
25468;DHT22;13384;24.794;110.498;2023-03-14T03:04:49;17.10;97.40
25468;DHT22;13384;24.794;110.498;2023-03-14T03:07:25;17.20;98.30
25468;DHT22;13384;24.794;110.498;2023-03-14T03:09:57;17.50;96.10
25468;DHT22;13384;24.794;110.498;2023-03-14T03:12:29;17.50;94.50
25468;DHT22;13384;24.794;110.498;2023-03-14T03:15:01;17.50;94.70
25468;DHT22;13384;24.794;110.498;2023-03-14T03:17:35;17.50;93.90
25468;DHT22;13384;24.794;110.498;2023-03-14T03:20:07;17.50;94.00
25468;DHT22;13384;24.794;110.498;2023-03-14T03:22:43;17.70;94.40
25468;DHT22;13384;24.794;110.498;2023-03-14T03:25:15;18.10;94.90
25468;DHT22;13384;24.794;110.498;2023-03-14T03:27:46;18.20;93.20
25468;DHT22;13384;24.794;110.498;2023-03-14T03:30:19;18.10;93.70
25468;DHT22;13384;24.794;110.498;2023-03-14T03:32:50;18.20;93.20
25468;DHT22;13384;24.794;110.498;2023-03-14T03:35:22;18.40;93.50
25468;DHT22;13384;24.794;110.498;2023-03-14T03:37:55;18.40;93.30
25468;DHT22;13384;24.794;110.498;2023-03-14T03:40:27;18.50;92.60
25468;DHT22;13384;24.794;110.498;2023-03-14T03:43:05;18.70;92.20
25468;DHT22;13384;24.794;110.498;2023-03-14T03:45:43;18.70;92.60
25468;DHT22;13384;24.794;110.498;2023-03-14T03:48:14;18.90;91.60
25468;DHT22;13384;24.794;110.498;2023-03-14T03:50:49;18.90;92.10
25468;DHT22;13384;24.794;110.498;2023-03-14T03:53:22;19.00;90.20
25468;DHT22;13384;24.794;110.498;2023-03-14T03:56:07;19.20;90.90
25468;DHT22;13384;24.794;110.498;2023-03-14T03:58:39;19.20;90.50
25468;DHT22;13384;24.794;110.498;2023-03-14T04:01:12;19.10;91.70
25468;DHT22;13384;24.794;110.498;2023-03-14T04:03:47;19.10;91.00
25468;DHT22;13384;24.794;110.498;2023-03-14T04:06:32;19.20;91.20
25468;DHT22;13384;24.794;110.498;2023-03-14T04:09:06;19.30;91.30
25468;DHT22;13384;24.794;110.498;2023-03-14T04:11:46;19.40;90.50
25468;DHT22;13384;24.794;110.498;2023-03-14T04:14:20;19.50;90.90
25468;DHT22;13384;24.794;110.498;2023-03-14T04:17:08;19.50;90.20
25468;DHT22;13384;24.794;110.498;2023-03-14T04:19:39;19.40;89.70
25468;DHT22;13384;24.794;110.498;2023-03-14T04:22:12;19.50;90.10
25468;DHT22;13384;24.794;110.498;2023-03-14T04:24:48;19.50;90.50
25468;DHT22;13384;24.794;110.498;2023-03-14T04:27:20;19.50;91.70
25468;DHT22;13384;24.794;110.498;2023-03-14T04:29:55;19.70;90.20
25468;DHT22;13384;24.794;110.498;2023-03-14T04:32:44;19.80;90.80
25468;DHT22;13384;24.794;110.498;2023-03-14T04:35:21;19.70;89.10
25468;DHT22;13384;24.794;110.498;2023-03-14T04:37:58;19.70;90.90
25468;DHT22;13384;24.794;110.498;2023-03-14T04:40:31;19.80;90.30
25468;DHT22;13384;24.794;110.498;2023-03-14T04:43:07;19.90;89.10
25468;DHT22;13384;24.794;110.498;2023-03-14T04:45:47;19.60;88.30
25468;DHT22;13384;24.794;110.498;2023-03-14T04:48:19;19.60;89.80
25468;DHT22;13384;24.794;110.498;2023-03-14T04:50:51;19.60;90.30
25468;DHT22;13384;24.794;110.498;2023-03-14T04:53:24;19.70;89.30
25468;DHT22;13384;24.794;110.498;2023-03-14T04:55:57;19.70;90.00
25468;DHT22;13384;24.794;110.498;2023-03-14T04:58:35;19.80;87.90
25468;DHT22;13384;24.794;110.498;2023-03-14T05:01:10;19.80;90.50
25468;DHT22;13384;24.794;110.498;2023-03-14T05:04:11;19.80;91.80
25468;DHT22;13384;24.794;110.498;2023-03-14T05:07:16;19.80;90.90
25468;DHT22;13384;24.794;110.498;2023-03-14T05:10:08;19.90;87.90
25468;DHT22;13384;24.794;110.498;2023-03-14T05:13:03;19.90;86.90
25468;DHT22;13384;24.794;110.498;2023-03-14T05:16:06;19.90;88.70
25468;DHT22;13384;24.794;110.498;2023-03-14T05:19:01;20.00;88.80
25468;DHT22;13384;24.794;110.498;2023-03-14T05:21:42;20.10;87.60
25468;DHT22;13384;24.794;110.498;2023-03-14T05:24:28;20.10;88.00
25468;DHT22;13384;24.794;110.498;2023-03-14T05:27:14;20.20;86.40
25468;DHT22;13384;24.794;110.498;2023-03-14T05:30:10;20.20;87.30
25468;DHT22;13384;24.794;110.498;2023-03-14T05:32:41;20.20;86.00
25468;DHT22;13384;24.794;110.498;2023-03-14T05:35:34;20.10;91.40
25468;DHT22;13384;24.794;110.498;2023-03-14T05:38:18;20.10;87.20
25468;DHT22;13384;24.794;110.498;2023-03-14T05:41:16;20.00;86.90
25468;DHT22;13384;24.794;110.498;2023-03-14T05:44:17;20.20;85.70
25468;DHT22;13384;24.794;110.498;2023-03-14T05:47:13;20.20;87.10
25468;DHT22;13384;24.794;110.498;2023-03-14T05:50:10;20.10;86.80
25468;DHT22;13384;24.794;110.498;2023-03-14T05:53:01;20.20;86.80
25468;DHT22;13384;24.794;110.498;2023-03-14T05:55:54;20.20;86.60
25468;DHT22;13384;24.794;110.498;2023-03-14T05:58:36;20.20;86.10
25468;DHT22;13384;24.794;110.498;2023-03-14T06:01:31;20.10;85.70
25468;DHT22;13384;24.794;110.498;2023-03-14T06:04:15;20.00;86.30
25468;DHT22;13384;24.794;110.498;2023-03-14T06:06:51;19.90;86.80
25468;DHT22;13384;24.794;110.498;2023-03-14T06:09:23;20.10;87.90
25468;DHT22;13384;24.794;110.498;2023-03-14T06:11:57;20.00;86.40
25468;DHT22;13384;24.794;110.498;2023-03-14T06:14:32;20.00;86.10
25468;DHT22;13384;24.794;110.498;2023-03-14T06:17:04;19.90;86.80
25468;DHT22;13384;24.794;110.498;2023-03-14T06:19:42;19.90;87.00
25468;DHT22;13384;24.794;110.498;2023-03-14T06:22:14;20.00;86.90
25468;DHT22;13384;24.794;110.498;2023-03-14T06:24:48;19.90;88.90
25468;DHT22;13384;24.794;110.498;2023-03-14T06:27:27;19.80;91.00
25468;DHT22;13384;24.794;110.498;2023-03-14T06:29:59;19.80;88.40
25468;DHT22;13384;24.794;110.498;2023-03-14T06:32:32;20.00;88.90
25468;DHT22;13384;24.794;110.498;2023-03-14T06:35:27;20.10;88.40
25468;DHT22;13384;24.794;110.498;2023-03-14T06:37:59;20.00;89.50
25468;DHT22;13384;24.794;110.498;2023-03-14T06:40:30;19.90;90.60
25468;DHT22;13384;24.794;110.498;2023-03-14T06:43:22;20.00;89.30
25468;DHT22;13384;24.794;110.498;2023-03-14T06:45:55;20.00;88.40
25468;DHT22;13384;24.794;110.498;2023-03-14T06:48:27;20.00;88.60
25468;DHT22;13384;24.794;110.498;2023-03-14T06:50:59;20.00;90.60
25468;DHT22;13384;24.794;110.498;2023-03-14T06:53:30;19.80;90.10
25468;DHT22;13384;24.794;110.498;2023-03-14T06:56:04;19.70;92.00
25468;DHT22;13384;24.794;110.498;2023-03-14T06:58:36;19.60;90.30
25468;DHT22;13384;24.794;110.498;2023-03-14T07:01:22;19.80;90.20
25468;DHT22;13384;24.794;110.498;2023-03-14T07:04:01;19.90;91.30
25468;DHT22;13384;24.794;110.498;2023-03-14T07:06:34;19.70;91.50
25468;DHT22;13384;24.794;110.498;2023-03-14T07:09:06;19.70;91.00
25468;DHT22;13384;24.794;110.498;2023-03-14T07:11:41;19.70;90.60
25468;DHT22;13384;24.794;110.498;2023-03-14T07:14:12;19.80;90.70
25468;DHT22;13384;24.794;110.498;2023-03-14T07:16:44;19.60;91.90
25468;DHT22;13384;24.794;110.498;2023-03-14T07:19:16;19.50;90.90
25468;DHT22;13384;24.794;110.498;2023-03-14T07:21:47;19.70;90.60
25468;DHT22;13384;24.794;110.498;2023-03-14T07:24:31;19.80;90.30
25468;DHT22;13384;24.794;110.498;2023-03-14T07:27:03;19.80;90.70
25468;DHT22;13384;24.794;110.498;2023-03-14T07:29:44;19.70;90.20
25468;DHT22;13384;24.794;110.498;2023-03-14T07:32:16;19.80;89.20
25468;DHT22;13384;24.794;110.498;2023-03-14T07:34:47;19.70;89.50
25468;DHT22;13384;24.794;110.498;2023-03-14T07:37:18;19.70;90.60
25468;DHT22;13384;24.794;110.498;2023-03-14T07:39:49;19.70;90.20
25468;DHT22;13384;24.794;110.498;2023-03-14T07:42:25;19.80;90.10
25468;DHT22;13384;24.794;110.498;2023-03-14T07:45:15;19.80;90.10
25468;DHT22;13384;24.794;110.498;2023-03-14T07:47:46;19.80;90.10
25468;DHT22;13384;24.794;110.498;2023-03-14T07:50:17;19.70;90.60
25468;DHT22;13384;24.794;110.498;2023-03-14T07:52:49;19.50;90.80
25468;DHT22;13384;24.794;110.498;2023-03-14T07:55:21;19.40;91.00
25468;DHT22;13384;24.794;110.498;2023-03-14T07:57:52;19.30;91.40
25468;DHT22;13384;24.794;110.498;2023-03-14T08:00:24;19.40;91.50
25468;DHT22;13384;24.794;110.498;2023-03-14T08:02:56;19.50;91.00
25468;DHT22;13384;24.794;110.498;2023-03-14T08:05:27;19.50;91.60
25468;DHT22;13384;24.794;110.498;2023-03-14T08:07:58;19.40;92.10
25468;DHT22;13384;24.794;110.498;2023-03-14T08:10:30;19.30;92.20
25468;DHT22;13384;24.794;110.498;2023-03-14T08:13:01;19.30;92.30
25468;DHT22;13384;24.794;110.498;2023-03-14T08:15:33;19.40;91.20
25468;DHT22;13384;24.794;110.498;2023-03-14T08:18:05;19.30;91.70
25468;DHT22;13384;24.794;110.498;2023-03-14T08:20:36;19.40;91.20
25468;DHT22;13384;24.794;110.498;2023-03-14T08:23:11;19.40;91.50
25468;DHT22;13384;24.794;110.498;2023-03-14T08:25:42;19.20;91.60
25468;DHT22;13384;24.794;110.498;2023-03-14T08:28:15;19.40;91.40
25468;DHT22;13384;24.794;110.498;2023-03-14T08:30:47;19.40;91.20
25468;DHT22;13384;24.794;110.498;2023-03-14T08:33:18;19.50;91.60
25468;DHT22;13384;24.794;110.498;2023-03-14T08:35:52;19.40;92.10
25468;DHT22;13384;24.794;110.498;2023-03-14T08:38:24;19.20;92.50
25468;DHT22;13384;24.794;110.498;2023-03-14T08:41:05;19.20;92.30
25468;DHT22;13384;24.794;110.498;2023-03-14T08:43:36;19.30;91.90
25468;DHT22;13384;24.794;110.498;2023-03-14T08:46:07;19.30;91.80
25468;DHT22;13384;24.794;110.498;2023-03-14T08:48:38;19.60;91.60
25468;DHT22;13384;24.794;110.498;2023-03-14T08:51:11;19.90;91.10
25468;DHT22;13384;24.794;110.498;2023-03-14T08:53:45;20.00;91.20
25468;DHT22;13384;24.794;110.498;2023-03-14T08:56:16;19.90;91.30
25468;DHT22;13384;24.794;110.498;2023-03-14T08:58:48;19.60;91.80
25468;DHT22;13384;24.794;110.498;2023-03-14T09:01:21;19.70;91.90
25468;DHT22;13384;24.794;110.498;2023-03-14T09:03:55;19.80;91.70
25468;DHT22;13384;24.794;110.498;2023-03-14T09:06:34;19.70;92.00
25468;DHT22;13384;24.794;110.498;2023-03-14T09:09:06;19.60;92.20
25468;DHT22;13384;24.794;110.498;2023-03-14T09:11:37;19.80;91.90
25468;DHT22;13384;24.794;110.498;2023-03-14T09:14:28;19.70;92.10
25468;DHT22;13384;24.794;110.498;2023-03-14T09:16:59;19.80;91.80
25468;DHT22;13384;24.794;110.498;2023-03-14T09:19:31;19.80;91.90
25468;DHT22;13384;24.794;110.498;2023-03-14T09:22:03;19.70;92.00
25468;DHT22;13384;24.794;110.498;2023-03-14T09:24:35;19.80;92.00
25468;DHT22;13384;24.794;110.498;2023-03-14T09:27:07;19.70;92.00
25468;DHT22;13384;24.794;110.498;2023-03-14T09:29:39;19.60;92.30
25468;DHT22;13384;24.794;110.498;2023-03-14T09:32:10;19.40;92.50
25468;DHT22;13384;24.794;110.498;2023-03-14T09:34:41;19.40;92.60
25468;DHT22;13384;24.794;110.498;2023-03-14T09:37:13;19.30;92.80
25468;DHT22;13384;24.794;110.498;2023-03-14T09:39:46;19.20;92.90
25468;DHT22;13384;24.794;110.498;2023-03-14T09:42:21;19.10;93.10
25468;DHT22;13384;24.794;110.498;2023-03-14T09:45:00;19.30;93.00
25468;DHT22;13384;24.794;110.498;2023-03-14T09:47:36;19.10;93.80
25468;DHT22;13384;24.794;110.498;2023-03-14T09:50:21;19.00;93.30
25468;DHT22;13384;24.794;110.498;2023-03-14T09:52:58;18.80;94.10
25468;DHT22;13384;24.794;110.498;2023-03-14T09:55:30;19.00;93.50
25468;DHT22;13384;24.794;110.498;2023-03-14T09:58:12;18.80;93.90
25468;DHT22;13384;24.794;110.498;2023-03-14T10:01:13;18.80;93.90
25468;DHT22;13384;24.794;110.498;2023-03-14T10:03:47;19.00;93.40
25468;DHT22;13384;24.794;110.498;2023-03-14T10:06:19;18.80;93.90
25468;DHT22;13384;24.794;110.498;2023-03-14T10:08:50;18.90;93.80
25468;DHT22;13384;24.794;110.498;2023-03-14T10:11:24;19.00;93.50
25468;DHT22;13384;24.794;110.498;2023-03-14T10:14:08;18.90;93.80
25468;DHT22;13384;24.794;110.498;2023-03-14T10:16:46;18.90;93.80
25468;DHT22;13384;24.794;110.498;2023-03-14T10:19:17;19.00;93.70
25468;DHT22;13384;24.794;110.498;2023-03-14T10:21:53;18.90;93.60
25468;DHT22;13384;24.794;110.498;2023-03-14T10:24:35;18.70;94.50
25468;DHT22;13384;24.794;110.498;2023-03-14T10:27:22;18.80;94.30
25468;DHT22;13384;24.794;110.498;2023-03-14T10:29:59;18.80;94.40
25468;DHT22;13384;24.794;110.498;2023-03-14T10:32:37;18.70;94.50
25468;DHT22;13384;24.794;110.498;2023-03-14T10:38:04;18.60;94.70
25468;DHT22;13384;24.794;110.498;2023-03-14T10:40:45;18.50;95.00
25468;DHT22;13384;24.794;110.498;2023-03-14T10:43:36;18.60;95.20
25468;DHT22;13384;24.794;110.498;2023-03-14T10:46:17;18.60;95.20
25468;DHT22;13384;24.794;110.498;2023-03-14T10:49:07;18.60;95.20
25468;DHT22;13384;24.794;110.498;2023-03-14T10:51:41;18.60;95.40
25468;DHT22;13384;24.794;110.498;2023-03-14T10:54:18;18.40;95.50
25468;DHT22;13384;24.794;110.498;2023-03-14T10:57:01;18.40;95.80
25468;DHT22;13384;24.794;110.498;2023-03-14T10:59:39;18.40;96.00
25468;DHT22;13384;24.794;110.498;2023-03-14T11:02:58;18.40;95.90
25468;DHT22;13384;24.794;110.498;2023-03-14T11:08:07;18.40;96.30
25468;DHT22;13384;24.794;110.498;2023-03-14T11:10:40;18.40;96.50
25468;DHT22;13384;24.794;110.498;2023-03-14T11:17:02;18.30;96.90
25468;DHT22;13384;24.794;110.498;2023-03-14T11:27:55;18.10;97.10
25468;DHT22;13384;24.794;110.498;2023-03-14T11:30:53;18.10;96.70
25468;DHT22;13384;24.794;110.498;2023-03-14T11:34:28;18.00;98.40
25468;DHT22;13384;24.794;110.498;2023-03-14T11:36:46;18.00;97.40
25468;DHT22;13384;24.794;110.498;2023-03-14T11:39:22;17.90;97.30
25468;DHT22;13384;24.794;110.498;2023-03-14T11:41:58;17.90;98.50
25468;DHT22;13384;24.794;110.498;2023-03-14T11:44:38;17.90;98.20
25468;DHT22;13384;24.794;110.498;2023-03-14T11:50:17;17.90;99.20
25468;DHT22;13384;24.794;110.498;2023-03-14T11:53:01;18.00;98.60
25468;DHT22;13384;24.794;110.498;2023-03-14T11:55:36;17.90;98.00
25468;DHT22;13384;24.794;110.498;2023-03-14T11:58:14;17.80;99.20
25468;DHT22;13384;24.794;110.498;2023-03-14T12:00:54;17.80;99.70
25468;DHT22;13384;24.794;110.498;2023-03-14T12:04:05;17.80;99.90
25468;DHT22;13384;24.794;110.498;2023-03-14T12:06:49;17.70;99.90
25468;DHT22;13384;24.794;110.498;2023-03-14T12:09:22;17.70;99.90
25468;DHT22;13384;24.794;110.498;2023-03-14T12:11:59;17.70;99.90
25468;DHT22;13384;24.794;110.498;2023-03-14T12:14:35;17.70;99.90
25468;DHT22;13384;24.794;110.498;2023-03-14T12:17:25;17.70;99.90
25468;DHT22;13384;24.794;110.498;2023-03-14T12:22:55;17.60;99.90
25468;DHT22;13384;24.794;110.498;2023-03-14T12:25:32;17.70;99.90
25468;DHT22;13384;24.794;110.498;2023-03-14T12:28:21;17.80;99.90
25468;DHT22;13384;24.794;110.498;2023-03-14T12:30:52;17.70;99.90
25468;DHT22;13384;24.794;110.498;2023-03-14T12:33:28;17.60;99.90
25468;DHT22;13384;24.794;110.498;2023-03-14T12:36:04;17.60;99.90
25468;DHT22;13384;24.794;110.498;2023-03-14T12:39:05;17.60;99.90
25468;DHT22;13384;24.794;110.498;2023-03-14T12:42:09;17.60;99.90
25468;DHT22;13384;24.794;110.498;2023-03-14T12:44:43;17.50;99.90
25468;DHT22;13384;24.794;110.498;2023-03-14T12:50:16;17.50;99.90
25468;DHT22;13384;24.794;110.498;2023-03-14T12:53:41;17.50;99.90
25468;DHT22;13384;24.794;110.498;2023-03-14T13:01:37;17.40;99.90
25468;DHT22;13384;24.794;110.498;2023-03-14T13:04:16;17.40;99.90
25468;DHT22;13384;24.794;110.498;2023-03-14T13:07:02;17.40;99.90
25468;DHT22;13384;24.794;110.498;2023-03-14T13:09:35;17.40;99.90
25468;DHT22;13384;24.794;110.498;2023-03-14T13:12:17;17.30;99.90
25468;DHT22;13384;24.794;110.498;2023-03-14T13:14:50;17.40;99.90
25468;DHT22;13384;24.794;110.498;2023-03-14T13:17:49;17.40;99.90
25468;DHT22;13384;24.794;110.498;2023-03-14T13:20:34;17.30;99.90
25468;DHT22;13384;24.794;110.498;2023-03-14T13:23:21;17.40;99.90
25468;DHT22;13384;24.794;110.498;2023-03-14T13:25:56;17.30;99.90
25468;DHT22;13384;24.794;110.498;2023-03-14T13:28:31;17.30;99.90
25468;DHT22;13384;24.794;110.498;2023-03-14T13:31:28;17.30;99.90
25468;DHT22;13384;24.794;110.498;2023-03-14T13:34:04;17.30;99.90
25468;DHT22;13384;24.794;110.498;2023-03-14T13:36:57;17.30;99.90
25468;DHT22;13384;24.794;110.498;2023-03-14T13:39:29;17.30;99.90
25468;DHT22;13384;24.794;110.498;2023-03-14T13:42:05;17.30;99.90
25468;DHT22;13384;24.794;110.498;2023-03-14T13:44:59;17.30;99.90
25468;DHT22;13384;24.794;110.498;2023-03-14T13:47:31;17.30;99.90
25468;DHT22;13384;24.794;110.498;2023-03-14T13:50:02;17.40;99.90
25468;DHT22;13384;24.794;110.498;2023-03-14T13:52:38;17.30;99.90
25468;DHT22;13384;24.794;110.498;2023-03-14T13:55:16;17.30;99.90
25468;DHT22;13384;24.794;110.498;2023-03-14T13:57:54;17.20;99.90
25468;DHT22;13384;24.794;110.498;2023-03-14T14:00:28;17.20;99.90
25468;DHT22;13384;24.794;110.498;2023-03-14T14:03:04;17.20;99.90
25468;DHT22;13384;24.794;110.498;2023-03-14T14:05:44;17.30;99.90
25468;DHT22;13384;24.794;110.498;2023-03-14T14:08:16;17.20;99.90
25468;DHT22;13384;24.794;110.498;2023-03-14T14:11:00;17.20;99.90
25468;DHT22;13384;24.794;110.498;2023-03-14T14:13:34;17.30;99.90
25468;DHT22;13384;24.794;110.498;2023-03-14T14:16:10;17.20;99.90
25468;DHT22;13384;24.794;110.498;2023-03-14T14:18:42;17.20;99.90
25468;DHT22;13384;24.794;110.498;2023-03-14T14:21:15;17.20;99.90
25468;DHT22;13384;24.794;110.498;2023-03-14T14:24:00;17.10;99.90
25468;DHT22;13384;24.794;110.498;2023-03-14T14:26:40;17.20;99.90
25468;DHT22;13384;24.794;110.498;2023-03-14T14:29:25;17.20;99.90
25468;DHT22;13384;24.794;110.498;2023-03-14T14:32:14;17.20;99.90
25468;DHT22;13384;24.794;110.498;2023-03-14T14:34:56;17.10;99.90
25468;DHT22;13384;24.794;110.498;2023-03-14T14:37:45;17.10;99.90
25468;DHT22;13384;24.794;110.498;2023-03-14T14:40:24;17.20;99.90
25468;DHT22;13384;24.794;110.498;2023-03-14T14:43:04;17.20;99.90
25468;DHT22;13384;24.794;110.498;2023-03-14T14:45:36;17.20;99.90
25468;DHT22;13384;24.794;110.498;2023-03-14T14:48:24;17.10;99.90
25468;DHT22;13384;24.794;110.498;2023-03-14T14:56:34;17.10;99.90
25468;DHT22;13384;24.794;110.498;2023-03-14T14:59:06;17.10;99.90
25468;DHT22;13384;24.794;110.498;2023-03-14T15:01:39;17.00;99.90
25468;DHT22;13384;24.794;110.498;2023-03-14T15:04:12;17.10;99.90
25468;DHT22;13384;24.794;110.498;2023-03-14T15:07:09;17.10;99.90
25468;DHT22;13384;24.794;110.498;2023-03-14T15:09:55;17.00;99.90
25468;DHT22;13384;24.794;110.498;2023-03-14T15:12:27;17.00;99.90
25468;DHT22;13384;24.794;110.498;2023-03-14T15:14:58;16.90;99.90
25468;DHT22;13384;24.794;110.498;2023-03-14T15:17:39;17.00;99.90
25468;DHT22;13384;24.794;110.498;2023-03-14T15:20:16;16.90;99.90
25468;DHT22;13384;24.794;110.498;2023-03-14T15:22:48;17.10;99.90
25468;DHT22;13384;24.794;110.498;2023-03-14T15:25:20;17.00;99.90
25468;DHT22;13384;24.794;110.498;2023-03-14T15:28:22;17.00;99.90
25468;DHT22;13384;24.794;110.498;2023-03-14T15:30:56;17.00;99.90
25468;DHT22;13384;24.794;110.498;2023-03-14T15:33:28;17.00;99.90
25468;DHT22;13384;24.794;110.498;2023-03-14T15:36:03;16.90;99.90
25468;DHT22;13384;24.794;110.498;2023-03-14T15:38:36;16.90;99.90
25468;DHT22;13384;24.794;110.498;2023-03-14T15:41:10;16.90;99.90
25468;DHT22;13384;24.794;110.498;2023-03-14T15:43:42;17.00;99.90
25468;DHT22;13384;24.794;110.498;2023-03-14T15:46:14;17.00;99.90
25468;DHT22;13384;24.794;110.498;2023-03-14T15:48:49;17.00;99.90
25468;DHT22;13384;24.794;110.498;2023-03-14T15:51:20;17.00;99.90
25468;DHT22;13384;24.794;110.498;2023-03-14T15:53:53;17.00;99.90
25468;DHT22;13384;24.794;110.498;2023-03-14T15:56:30;17.00;99.90
25468;DHT22;13384;24.794;110.498;2023-03-14T15:59:03;17.00;99.90
25468;DHT22;13384;24.794;110.498;2023-03-14T16:01:35;17.00;99.90
25468;DHT22;13384;24.794;110.498;2023-03-14T16:04:07;17.00;99.90
25468;DHT22;13384;24.794;110.498;2023-03-14T16:06:39;16.90;99.90
25468;DHT22;13384;24.794;110.498;2023-03-14T16:09:16;16.90;99.90
25468;DHT22;13384;24.794;110.498;2023-03-14T16:11:49;17.00;99.90
25468;DHT22;13384;24.794;110.498;2023-03-14T16:14:22;16.90;99.90
25468;DHT22;13384;24.794;110.498;2023-03-14T16:17:09;16.90;99.90
25468;DHT22;13384;24.794;110.498;2023-03-14T16:19:44;17.00;99.90
25468;DHT22;13384;24.794;110.498;2023-03-14T16:22:15;16.80;99.90
25468;DHT22;13384;24.794;110.498;2023-03-14T16:24:46;16.90;99.90
25468;DHT22;13384;24.794;110.498;2023-03-14T16:27:17;16.90;99.90
25468;DHT22;13384;24.794;110.498;2023-03-14T16:29:48;16.90;99.90
25468;DHT22;13384;24.794;110.498;2023-03-14T16:32:32;17.00;99.90
25468;DHT22;13384;24.794;110.498;2023-03-14T16:35:05;16.90;99.90
25468;DHT22;13384;24.794;110.498;2023-03-14T16:37:36;16.90;99.90
25468;DHT22;13384;24.794;110.498;2023-03-14T16:40:08;16.80;99.90
25468;DHT22;13384;24.794;110.498;2023-03-14T16:42:43;16.90;99.90
25468;DHT22;13384;24.794;110.498;2023-03-14T16:45:37;16.90;99.90
25468;DHT22;13384;24.794;110.498;2023-03-14T16:48:08;16.80;99.90
25468;DHT22;13384;24.794;110.498;2023-03-14T16:50:41;16.90;99.90
25468;DHT22;13384;24.794;110.498;2023-03-14T16:53:18;16.90;99.90